sensor_id;sensor_type;location;lat;lon;timestamp;pressure;altitude;pressure_sealevel;temperature;humidity
39363;BME280;25088;43.238;23.110;2023-04-01T00:01:10;95504.69;;;15.86;43.78
39363;BME280;25088;43.238;23.110;2023-04-01T00:03:39;95495.28;;;16.10;42.71
39363;BME280;25088;43.238;23.110;2023-04-01T00:06:05;95493.03;;;16.12;42.44
39363;BME280;25088;43.238;23.110;2023-04-01T00:08:30;95481.22;;;16.20;40.88
39363;BME280;25088;43.238;23.110;2023-04-01T00:10:56;95484.56;;;16.39;40.46
39363;BME280;25088;43.238;23.110;2023-04-01T00:13:22;95453.16;;;16.49;40.05
39363;BME280;25088;43.238;23.110;2023-04-01T00:15:48;95457.09;;;16.65;39.94
39363;BME280;25088;43.238;23.110;2023-04-01T00:18:14;95472.31;;;16.63;39.96
39363;BME280;25088;43.238;23.110;2023-04-01T00:20:43;95466.06;;;16.79;38.98
39363;BME280;25088;43.238;23.110;2023-04-01T00:23:09;95443.69;;;16.72;39.18
39363;BME280;25088;43.238;23.110;2023-04-01T00:25:35;95454.44;;;16.91;38.56
39363;BME280;25088;43.238;23.110;2023-04-01T00:28:00;95437.16;;;16.68;39.23
39363;BME280;25088;43.238;23.110;2023-04-01T00:30:25;95435.72;;;16.71;39.28
39363;BME280;25088;43.238;23.110;2023-04-01T00:32:52;95450.13;;;16.68;39.32
39363;BME280;25088;43.238;23.110;2023-04-01T00:35:18;95436.69;;;16.66;38.76
39363;BME280;25088;43.238;23.110;2023-04-01T00:37:43;95445.25;;;16.65;38.64
39363;BME280;25088;43.238;23.110;2023-04-01T00:42:53;95418.84;;;16.64;39.04
39363;BME280;25088;43.238;23.110;2023-04-01T00:45:35;95440.25;;;16.67;39.17
39363;BME280;25088;43.238;23.110;2023-04-01T00:48:05;95436.97;;;16.65;38.86
39363;BME280;25088;43.238;23.110;2023-04-01T00:50:33;95445.63;;;16.72;38.73
39363;BME280;25088;43.238;23.110;2023-04-01T00:53:01;95427.97;;;16.82;38.41
39363;BME280;25088;43.238;23.110;2023-04-01T00:55:29;95422.31;;;16.87;38.07
39363;BME280;25088;43.238;23.110;2023-04-01T00:57:58;95403.00;;;16.78;37.96
39363;BME280;25088;43.238;23.110;2023-04-01T01:00:25;95413.06;;;16.83;38.13
39363;BME280;25088;43.238;23.110;2023-04-01T01:02:51;95371.34;;;16.67;38.26
39363;BME280;25088;43.238;23.110;2023-04-01T01:05:21;95393.53;;;16.70;38.44
39363;BME280;25088;43.238;23.110;2023-04-01T01:08:18;95412.56;;;16.80;38.34
39363;BME280;25088;43.238;23.110;2023-04-01T01:10:49;95407.06;;;16.89;38.47
39363;BME280;25088;43.238;23.110;2023-04-01T01:21:42;95400.25;;;16.78;38.17
39363;BME280;25088;43.238;23.110;2023-04-01T01:27:12;95384.00;;;16.68;38.16
39363;BME280;25088;43.238;23.110;2023-04-01T01:29:59;95363.91;;;16.67;38.35
39363;BME280;25088;43.238;23.110;2023-04-01T01:33:09;95365.72;;;16.72;37.07
39363;BME280;25088;43.238;23.110;2023-04-01T01:35:52;95355.63;;;16.67;38.52
39363;BME280;25088;43.238;23.110;2023-04-01T01:38:26;95366.16;;;16.57;37.47
39363;BME280;25088;43.238;23.110;2023-04-01T01:40:53;95357.25;;;16.68;37.52
39363;BME280;25088;43.238;23.110;2023-04-01T01:43:25;95349.50;;;16.79;37.11
39363;BME280;25088;43.238;23.110;2023-04-01T01:45:56;95347.88;;;16.78;37.11
39363;BME280;25088;43.238;23.110;2023-04-01T01:48:24;95359.53;;;16.75;36.79
39363;BME280;25088;43.238;23.110;2023-04-01T01:50:52;95349.94;;;16.64;36.62
39363;BME280;25088;43.238;23.110;2023-04-01T01:53:18;95357.25;;;16.86;35.61
39363;BME280;25088;43.238;23.110;2023-04-01T01:55:45;95369.09;;;16.95;35.79
39363;BME280;25088;43.238;23.110;2023-04-01T01:58:22;95357.28;;;16.94;35.86
39363;BME280;25088;43.238;23.110;2023-04-01T02:00:55;95356.13;;;16.95;36.10
39363;BME280;25088;43.238;23.110;2023-04-01T02:03:24;95364.91;;;16.89;35.72
39363;BME280;25088;43.238;23.110;2023-04-01T02:05:53;95338.31;;;17.01;35.72
39363;BME280;25088;43.238;23.110;2023-04-01T02:08:32;95337.97;;;16.94;35.99
39363;BME280;25088;43.238;23.110;2023-04-01T02:11:02;95323.56;;;16.71;36.18
39363;BME280;25088;43.238;23.110;2023-04-01T02:13:52;95337.34;;;16.89;36.14
39363;BME280;25088;43.238;23.110;2023-04-01T02:16:33;95337.50;;;16.92;36.31
39363;BME280;25088;43.238;23.110;2023-04-01T02:19:02;95356.94;;;16.78;36.79
39363;BME280;25088;43.238;23.110;2023-04-01T02:21:33;95353.22;;;16.83;36.42
39363;BME280;25088;43.238;23.110;2023-04-01T02:24:02;95360.19;;;16.80;36.35
39363;BME280;25088;43.238;23.110;2023-04-01T02:26:29;95349.50;;;16.79;36.50
39363;BME280;25088;43.238;23.110;2023-04-01T02:28:56;95352.38;;;16.65;36.82
39363;BME280;25088;43.238;23.110;2023-04-01T02:31:23;95350.56;;;16.61;36.98
39363;BME280;25088;43.238;23.110;2023-04-01T02:33:49;95346.06;;;16.56;37.02
39363;BME280;25088;43.238;23.110;2023-04-01T02:36:15;95359.34;;;16.63;36.88
39363;BME280;25088;43.238;23.110;2023-04-01T02:38:43;95355.28;;;16.60;37.51
39363;BME280;25088;43.238;23.110;2023-04-01T02:41:09;95344.25;;;16.43;38.00
39363;BME280;25088;43.238;23.110;2023-04-01T02:43:35;95347.81;;;16.61;38.02
39363;BME280;25088;43.238;23.110;2023-04-01T02:46:01;95356.94;;;16.61;38.33
39363;BME280;25088;43.238;23.110;2023-04-01T02:48:27;95360.28;;;16.49;38.90
39363;BME280;25088;43.238;23.110;2023-04-01T02:50:53;95378.44;;;16.42;39.28
39363;BME280;25088;43.238;23.110;2023-04-01T02:53:18;95374.72;;;16.46;39.06
39363;BME280;25088;43.238;23.110;2023-04-01T02:55:44;95372.28;;;16.45;39.88
39363;BME280;25088;43.238;23.110;2023-04-01T02:58:10;95373.38;;;16.35;39.60
39363;BME280;25088;43.238;23.110;2023-04-01T03:00:36;95381.50;;;16.40;40.25
39363;BME280;25088;43.238;23.110;2023-04-01T03:03:01;95385.06;;;16.32;40.13
39363;BME280;25088;43.238;23.110;2023-04-01T03:05:28;95386.19;;;16.31;40.84
39363;BME280;25088;43.238;23.110;2023-04-01T03:07:54;95384.72;;;16.25;40.77
39363;BME280;25088;43.238;23.110;2023-04-01T03:10:19;95385.19;;;16.18;40.74
39363;BME280;25088;43.238;23.110;2023-04-01T03:12:45;95358.19;;;15.89;41.10
39363;BME280;25088;43.238;23.110;2023-04-01T03:15:12;95379.16;;;16.08;41.50
39363;BME280;25088;43.238;23.110;2023-04-01T03:17:38;95373.44;;;15.95;41.67
39363;BME280;25088;43.238;23.110;2023-04-01T03:20:05;95365.75;;;15.75;42.70
39363;BME280;25088;43.238;23.110;2023-04-01T03:22:31;95375.00;;;15.79;43.59
39363;BME280;25088;43.238;23.110;2023-04-01T03:24:56;95388.84;;;15.65;44.44
39363;BME280;25088;43.238;23.110;2023-04-01T03:27:22;95372.13;;;15.62;44.12
39363;BME280;25088;43.238;23.110;2023-04-01T03:29:48;95360.69;;;15.37;45.45
39363;BME280;25088;43.238;23.110;2023-04-01T03:32:14;95378.72;;;15.52;45.79
39363;BME280;25088;43.238;23.110;2023-04-01T03:34:39;95360.16;;;15.35;46.67
39363;BME280;25088;43.238;23.110;2023-04-01T03:37:05;95366.69;;;15.17;47.48
39363;BME280;25088;43.238;23.110;2023-04-01T03:39:31;95376.78;;;15.30;46.84
39363;BME280;25088;43.238;23.110;2023-04-01T03:41:56;95375.78;;;15.26;47.37
39363;BME280;25088;43.238;23.110;2023-04-01T03:44:22;95362.94;;;15.13;47.50
39363;BME280;25088;43.238;23.110;2023-04-01T03:46:47;95384.03;;;15.26;47.61
39363;BME280;25088;43.238;23.110;2023-04-01T03:49:13;95392.00;;;15.28;48.17
39363;BME280;25088;43.238;23.110;2023-04-01T03:51:40;95382.81;;;15.10;48.60
39363;BME280;25088;43.238;23.110;2023-04-01T03:54:06;95361.75;;;15.05;48.52
39363;BME280;25088;43.238;23.110;2023-04-01T03:56:32;95358.38;;;15.08;47.82
39363;BME280;25088;43.238;23.110;2023-04-01T03:58:57;95358.13;;;15.18;47.89
39363;BME280;25088;43.238;23.110;2023-04-01T04:01:23;95356.19;;;15.19;48.93
39363;BME280;25088;43.238;23.110;2023-04-01T04:03:49;95322.72;;;14.94;48.63
39363;BME280;25088;43.238;23.110;2023-04-01T04:06:16;95350.75;;;15.05;48.21
39363;BME280;25088;43.238;23.110;2023-04-01T04:08:42;95348.94;;;15.00;49.08
39363;BME280;25088;43.238;23.110;2023-04-01T04:11:08;95326.59;;;14.93;48.64
39363;BME280;25088;43.238;23.110;2023-04-01T04:13:34;95330.41;;;14.84;49.47
39363;BME280;25088;43.238;23.110;2023-04-01T04:16:01;95327.84;;;14.87;49.87
39363;BME280;25088;43.238;23.110;2023-04-01T04:18:27;95317.59;;;14.79;49.84
39363;BME280;25088;43.238;23.110;2023-04-01T04:20:52;95302.53;;;14.54;50.37
39363;BME280;25088;43.238;23.110;2023-04-01T04:23:18;95318.31;;;14.48;51.00
39363;BME280;25088;43.238;23.110;2023-04-01T04:26:05;95304.00;;;14.38;52.30
39363;BME280;25088;43.238;23.110;2023-04-01T04:28:32;95290.09;;;14.20;52.56
39363;BME280;25088;43.238;23.110;2023-04-01T04:30:57;95299.03;;;14.26;52.65
39363;BME280;25088;43.238;23.110;2023-04-01T04:33:24;95301.97;;;14.30;53.29
39363;BME280;25088;43.238;23.110;2023-04-01T04:35:50;95287.94;;;14.31;52.75
39363;BME280;25088;43.238;23.110;2023-04-01T04:38:16;95288.50;;;14.42;53.50
39363;BME280;25088;43.238;23.110;2023-04-01T04:40:43;95290.88;;;14.48;52.79
39363;BME280;25088;43.238;23.110;2023-04-01T04:43:14;95267.78;;;14.36;53.21
39363;BME280;25088;43.238;23.110;2023-04-01T04:45:40;95291.88;;;14.53;52.72
39363;BME280;25088;43.238;23.110;2023-04-01T04:48:10;95279.88;;;14.48;53.87
39363;BME280;25088;43.238;23.110;2023-04-01T04:50:39;95267.50;;;14.37;51.22
39363;BME280;25088;43.238;23.110;2023-04-01T04:53:05;95255.22;;;14.21;51.36
39363;BME280;25088;43.238;23.110;2023-04-01T04:55:31;95257.31;;;14.38;52.06
39363;BME280;25088;43.238;23.110;2023-04-01T04:57:56;95253.25;;;14.35;50.00
39363;BME280;25088;43.238;23.110;2023-04-01T05:00:22;95236.97;;;14.39;50.23
39363;BME280;25088;43.238;23.110;2023-04-01T05:02:47;95250.03;;;14.56;50.39
39363;BME280;25088;43.238;23.110;2023-04-01T05:05:12;95239.03;;;14.56;52.17
39363;BME280;25088;43.238;23.110;2023-04-01T05:07:38;95245.53;;;14.60;51.45
39363;BME280;25088;43.238;23.110;2023-04-01T05:10:04;95252.66;;;14.61;51.38
39363;BME280;25088;43.238;23.110;2023-04-01T05:12:29;95263.84;;;14.64;54.48
39363;BME280;25088;43.238;23.110;2023-04-01T05:14:55;95251.78;;;14.52;53.76
39363;BME280;25088;43.238;23.110;2023-04-01T05:17:21;95245.53;;;14.37;54.46
39363;BME280;25088;43.238;23.110;2023-04-01T05:19:46;95233.25;;;14.21;52.80
39363;BME280;25088;43.238;23.110;2023-04-01T05:22:12;95223.91;;;14.22;52.10
39363;BME280;25088;43.238;23.110;2023-04-01T05:24:37;95235.38;;;14.46;51.36
39363;BME280;25088;43.238;23.110;2023-04-01T05:27:03;95228.19;;;14.51;51.30
39363;BME280;25088;43.238;23.110;2023-04-01T05:29:28;95233.38;;;14.52;50.15
39363;BME280;25088;43.238;23.110;2023-04-01T05:31:54;95221.44;;;14.57;51.04
39363;BME280;25088;43.238;23.110;2023-04-01T05:34:19;95217.28;;;14.59;50.96
39363;BME280;25088;43.238;23.110;2023-04-01T05:36:45;95222.97;;;14.63;51.40
39363;BME280;25088;43.238;23.110;2023-04-01T05:39:10;95217.50;;;14.71;50.86
39363;BME280;25088;43.238;23.110;2023-04-01T05:41:37;95219.03;;;14.86;52.05
39363;BME280;25088;43.238;23.110;2023-04-01T05:44:03;95213.28;;;14.96;50.77
39363;BME280;25088;43.238;23.110;2023-04-01T05:46:29;95211.22;;;15.02;49.99
39363;BME280;25088;43.238;23.110;2023-04-01T05:48:54;95207.63;;;15.02;49.99
39363;BME280;25088;43.238;23.110;2023-04-01T05:51:20;95213.31;;;15.05;49.84
39363;BME280;25088;43.238;23.110;2023-04-01T05:53:45;95222.69;;;15.04;50.57
39363;BME280;25088;43.238;23.110;2023-04-01T05:56:11;95214.47;;;15.04;50.71
39363;BME280;25088;43.238;23.110;2023-04-01T05:58:37;95209.03;;;14.90;51.42
39363;BME280;25088;43.238;23.110;2023-04-01T06:01:07;95208.91;;;14.95;52.07
39363;BME280;25088;43.238;23.110;2023-04-01T06:03:33;95214.94;;;15.06;52.08
39363;BME280;25088;43.238;23.110;2023-04-01T06:05:58;95200.25;;;15.11;52.36
39363;BME280;25088;43.238;23.110;2023-04-01T06:08:27;95210.00;;;15.17;50.67
39363;BME280;25088;43.238;23.110;2023-04-01T06:24:44;95208.63;;;15.37;51.70
39363;BME280;25088;43.238;23.110;2023-04-01T06:30:47;95205.84;;;15.28;50.20
39363;BME280;25088;43.238;23.110;2023-04-01T06:33:54;95196.59;;;15.24;52.11
39363;BME280;25088;43.238;23.110;2023-04-01T06:39:40;95193.78;;;15.46;51.73
39363;BME280;25088;43.238;23.110;2023-04-01T06:53:23;95180.91;;;15.90;49.51
39363;BME280;25088;43.238;23.110;2023-04-01T06:56:11;95180.78;;;16.13;49.82
39363;BME280;25088;43.238;23.110;2023-04-01T07:01:13;95183.84;;;16.28;46.43
39363;BME280;25088;43.238;23.110;2023-04-01T07:03:56;95177.50;;;16.45;48.56
39363;BME280;25088;43.238;23.110;2023-04-01T07:06:30;95186.75;;;16.49;46.87
39363;BME280;25088;43.238;23.110;2023-04-01T07:08:59;95177.84;;;16.52;47.00
39363;BME280;25088;43.238;23.110;2023-04-01T07:11:31;95190.47;;;16.53;45.89
39363;BME280;25088;43.238;23.110;2023-04-01T07:14:04;95196.13;;;16.57;45.72
39363;BME280;25088;43.238;23.110;2023-04-01T07:16:39;95194.81;;;16.63;44.95
39363;BME280;25088;43.238;23.110;2023-04-01T07:19:14;95202.31;;;16.71;44.16
39363;BME280;25088;43.238;23.110;2023-04-01T07:21:48;95186.88;;;16.79;44.50
39363;BME280;25088;43.238;23.110;2023-04-01T07:26:57;95174.47;;;17.11;43.23
39363;BME280;25088;43.238;23.110;2023-04-01T07:29:25;95175.00;;;17.34;42.02
39363;BME280;25088;43.238;23.110;2023-04-01T07:40:45;95186.56;;;17.95;40.94
39363;BME280;25088;43.238;23.110;2023-04-01T07:49:28;95183.13;;;18.40;39.74
39363;BME280;25088;43.238;23.110;2023-04-01T07:52:05;95181.19;;;18.53;39.18
39363;BME280;25088;43.238;23.110;2023-04-01T08:06:01;95160.44;;;19.37;38.60
39363;BME280;25088;43.238;23.110;2023-04-01T08:11:08;95162.06;;;19.38;38.45
39363;BME280;25088;43.238;23.110;2023-04-01T08:21:54;95162.03;;;19.02;41.32
39363;BME280;25088;43.238;23.110;2023-04-01T08:24:42;95154.19;;;19.04;41.51
39363;BME280;25088;43.238;23.110;2023-04-01T08:27:31;95151.75;;;19.02;42.01
39363;BME280;25088;43.238;23.110;2023-04-01T08:33:05;95170.53;;;18.97;42.52
39363;BME280;25088;43.238;23.110;2023-04-01T08:35:56;95161.56;;;19.12;42.94
39363;BME280;25088;43.238;23.110;2023-04-01T08:52:23;95169.34;;;17.90;46.25
39363;BME280;25088;43.238;23.110;2023-04-01T09:12:25;95163.28;;;17.08;51.18
39363;BME280;25088;43.238;23.110;2023-04-01T09:18:12;95161.34;;;17.08;51.94
39363;BME280;25088;43.238;23.110;2023-04-01T09:36:47;95113.66;;;18.08;50.12
39363;BME280;25088;43.238;23.110;2023-04-01T09:39:37;95132.16;;;18.50;50.17
39363;BME280;25088;43.238;23.110;2023-04-01T09:44:58;95116.56;;;18.78;49.42
39363;BME280;25088;43.238;23.110;2023-04-01T10:09:40;95103.91;;;18.11;49.18
39363;BME280;25088;43.238;23.110;2023-04-01T10:18:23;95125.25;;;17.51;51.57
39363;BME280;25088;43.238;23.110;2023-04-01T10:25:05;95138.75;;;17.15;54.54
39363;BME280;25088;43.238;23.110;2023-04-01T10:27:20;95116.38;;;16.61;56.03
39363;BME280;25088;43.238;23.110;2023-04-01T10:33:10;95085.50;;;16.29;61.25
39363;BME280;25088;43.238;23.110;2023-04-01T10:44:40;95067.19;;;18.11;58.95
39363;BME280;25088;43.238;23.110;2023-04-01T10:59:04;95048.22;;;17.88;59.57
39363;BME280;25088;43.238;23.110;2023-04-01T11:16:04;95082.94;;;16.79;64.44
39363;BME280;25088;43.238;23.110;2023-04-01T11:39:58;95161.72;;;14.93;87.86
39363;BME280;25088;43.238;23.110;2023-04-01T11:47:47;95185.78;;;13.98;100.00
39363;BME280;25088;43.238;23.110;2023-04-01T11:50:24;95194.41;;;13.14;80.78
39363;BME280;25088;43.238;23.110;2023-04-01T11:58:49;95223.59;;;11.31;93.80
39363;BME280;25088;43.238;23.110;2023-04-01T12:07:42;95202.16;;;10.96;100.00
39363;BME280;25088;43.238;23.110;2023-04-01T12:23:46;95179.25;;;10.92;100.00
39363;BME280;25088;43.238;23.110;2023-04-01T12:26:22;95153.47;;;10.79;100.00
39363;BME280;25088;43.238;23.110;2023-04-01T12:31:42;95102.88;;;11.29;99.95
39363;BME280;25088;43.238;23.110;2023-04-01T12:42:44;95006.44;;;18.23;60.46
39363;BME280;25088;43.238;23.110;2023-04-01T12:50:40;94978.25;;;22.08;49.53
39363;BME280;25088;43.238;23.110;2023-04-01T12:55:51;94980.31;;;23.00;42.61
39363;BME280;25088;43.238;23.110;2023-04-01T12:58:39;94971.59;;;23.01;40.24
39363;BME280;25088;43.238;23.110;2023-04-01T13:01:27;94962.34;;;22.93;39.13
39363;BME280;25088;43.238;23.110;2023-04-01T13:17:21;94950.13;;;20.37;40.38
39363;BME280;25088;43.238;23.110;2023-04-01T13:28:23;94930.97;;;18.92;44.44
39363;BME280;25088;43.238;23.110;2023-04-01T13:36:47;94896.31;;;19.23;42.78
39363;BME280;25088;43.238;23.110;2023-04-01T13:48:07;94839.81;;;19.80;41.74
39363;BME280;25088;43.238;23.110;2023-04-01T14:02:01;94799.06;;;17.91;43.94
39363;BME280;25088;43.238;23.110;2023-04-01T14:08:09;94795.16;;;18.81;42.23
39363;BME280;25088;43.238;23.110;2023-04-01T14:11:21;94782.47;;;19.80;40.09
39363;BME280;25088;43.238;23.110;2023-04-01T14:17:14;94831.63;;;19.55;39.14
39363;BME280;25088;43.238;23.110;2023-04-01T14:20:22;94842.66;;;19.83;38.88
39363;BME280;25088;43.238;23.110;2023-04-01T14:28:40;94812.78;;;19.45;38.89
39363;BME280;25088;43.238;23.110;2023-04-01T14:39:48;94850.53;;;19.81;39.39
39363;BME280;25088;43.238;23.110;2023-04-01T14:42:49;94855.72;;;18.99;40.39
39363;BME280;25088;43.238;23.110;2023-04-01T14:48:57;94902.03;;;18.04;42.70
39363;BME280;25088;43.238;23.110;2023-04-01T14:54:03;94921.59;;;17.66;44.26
39363;BME280;25088;43.238;23.110;2023-04-01T14:59:28;94926.22;;;16.99;45.92
39363;BME280;25088;43.238;23.110;2023-04-01T15:02:03;94950.44;;;17.14;46.73
39363;BME280;25088;43.238;23.110;2023-04-01T15:04:55;94984.44;;;16.97;47.01
39363;BME280;25088;43.238;23.110;2023-04-01T15:07:56;95032.88;;;16.69;47.36
39363;BME280;25088;43.238;23.110;2023-04-01T15:16:25;95123.88;;;13.06;72.87
39363;BME280;25088;43.238;23.110;2023-04-01T15:28:13;95111.63;;;10.83;90.22
39363;BME280;25088;43.238;23.110;2023-04-01T15:42:15;95090.84;;;10.16;95.13
39363;BME280;25088;43.238;23.110;2023-04-01T15:45:00;95103.34;;;10.17;95.08
39363;BME280;25088;43.238;23.110;2023-04-01T15:48:06;95100.94;;;10.15;96.86
39363;BME280;25088;43.238;23.110;2023-04-01T15:53:43;95097.31;;;10.25;96.79
39363;BME280;25088;43.238;23.110;2023-04-01T16:01:59;95111.94;;;10.34;85.38
39363;BME280;25088;43.238;23.110;2023-04-01T16:04:47;95122.56;;;10.35;84.14
39363;BME280;25088;43.238;23.110;2023-04-01T16:16:18;95068.34;;;10.53;85.14
39363;BME280;25088;43.238;23.110;2023-04-01T16:21:51;95127.34;;;10.73;89.27
39363;BME280;25088;43.238;23.110;2023-04-01T16:24:38;95138.88;;;10.88;82.75
39363;BME280;25088;43.238;23.110;2023-04-01T16:27:27;95139.72;;;11.08;75.22
39363;BME280;25088;43.238;23.110;2023-04-01T16:33:03;95145.41;;;11.54;71.26
39363;BME280;25088;43.238;23.110;2023-04-01T16:35:37;95146.38;;;11.45;71.70
39363;BME280;25088;43.238;23.110;2023-04-01T16:38:36;95150.56;;;11.37;69.83
39363;BME280;25088;43.238;23.110;2023-04-01T16:41:31;95154.16;;;11.32;66.51
39363;BME280;25088;43.238;23.110;2023-04-01T16:44:22;95163.03;;;11.43;70.37
39363;BME280;25088;43.238;23.110;2023-04-01T16:46:56;95194.88;;;11.34;69.65
39363;BME280;25088;43.238;23.110;2023-04-01T16:51:57;95220.34;;;11.29;68.38
39363;BME280;25088;43.238;23.110;2023-04-01T16:54:58;95215.44;;;11.26;70.80
39363;BME280;25088;43.238;23.110;2023-04-01T16:57:36;95232.78;;;11.17;69.57
39363;BME280;25088;43.238;23.110;2023-04-01T17:00:27;95239.78;;;11.23;72.31
39363;BME280;25088;43.238;23.110;2023-04-01T17:03:30;95239.78;;;11.23;77.23
39363;BME280;25088;43.238;23.110;2023-04-01T17:11:48;95242.06;;;10.92;83.57
39363;BME280;25088;43.238;23.110;2023-04-01T17:14:27;95247.22;;;10.69;79.87
39363;BME280;25088;43.238;23.110;2023-04-01T17:19:55;95255.16;;;10.66;78.38
39363;BME280;25088;43.238;23.110;2023-04-01T17:25:32;95283.41;;;10.51;75.12
39363;BME280;25088;43.238;23.110;2023-04-01T17:28:34;95281.38;;;10.27;77.53
39363;BME280;25088;43.238;23.110;2023-04-01T17:34:03;95274.63;;;10.20;72.65
39363;BME280;25088;43.238;23.110;2023-04-01T17:42:50;95301.28;;;10.28;71.73
39363;BME280;25088;43.238;23.110;2023-04-01T17:45:49;95294.91;;;10.43;67.45
39363;BME280;25088;43.238;23.110;2023-04-01T17:48:26;95311.66;;;10.65;70.21
39363;BME280;25088;43.238;23.110;2023-04-01T17:51:04;95317.59;;;10.72;66.73
39363;BME280;25088;43.238;23.110;2023-04-01T17:53:45;95306.69;;;10.72;65.17
39363;BME280;25088;43.238;23.110;2023-04-01T17:56:34;95301.81;;;10.64;65.18
39363;BME280;25088;43.238;23.110;2023-04-01T18:07:07;95276.41;;;10.40;63.13
39363;BME280;25088;43.238;23.110;2023-04-01T18:26:33;95342.41;;;10.42;66.30
39363;BME280;25088;43.238;23.110;2023-04-01T18:31:39;95327.16;;;10.35;65.88
39363;BME280;25088;43.238;23.110;2023-04-01T18:34:15;95323.75;;;10.54;62.16
39363;BME280;25088;43.238;23.110;2023-04-01T18:36:53;95331.69;;;10.50;62.20
39363;BME280;25088;43.238;23.110;2023-04-01T18:39:34;95318.53;;;10.57;62.99
39363;BME280;25088;43.238;23.110;2023-04-01T18:45:09;95334.69;;;10.49;61.95
39363;BME280;25088;43.238;23.110;2023-04-01T18:47:57;95322.66;;;10.55;60.73
39363;BME280;25088;43.238;23.110;2023-04-01T18:50:52;95315.81;;;10.57;60.81
39363;BME280;25088;43.238;23.110;2023-04-01T18:53:34;95322.94;;;10.53;61.29
39363;BME280;25088;43.238;23.110;2023-04-01T18:56:11;95336.06;;;10.51;60.34
39363;BME280;25088;43.238;23.110;2023-04-01T19:05:14;95335.94;;;10.67;59.31
39363;BME280;25088;43.238;23.110;2023-04-01T19:10:17;95343.72;;;10.49;58.47
39363;BME280;25088;43.238;23.110;2023-04-01T19:18:39;95350.84;;;10.45;60.95
39363;BME280;25088;43.238;23.110;2023-04-01T19:21:18;95363.38;;;10.46;60.48
39363;BME280;25088;43.238;23.110;2023-04-01T19:24:34;95353.84;;;10.44;59.72
39363;BME280;25088;43.238;23.110;2023-04-01T19:27:07;95369.75;;;10.31;60.53
39363;BME280;25088;43.238;23.110;2023-04-01T19:29:48;95363.44;;;10.36;60.51
39363;BME280;25088;43.238;23.110;2023-04-01T19:35:26;95374.00;;;10.48;58.28
39363;BME280;25088;43.238;23.110;2023-04-01T19:40:40;95372.44;;;10.37;58.90
39363;BME280;25088;43.238;23.110;2023-04-01T19:48:34;95406.81;;;10.38;60.31
39363;BME280;25088;43.238;23.110;2023-04-01T19:51:35;95394.25;;;10.42;58.18
39363;BME280;25088;43.238;23.110;2023-04-01T19:54:18;95408.41;;;10.44;61.75
39363;BME280;25088;43.238;23.110;2023-04-01T20:05:01;95427.69;;;9.98;63.47
39363;BME280;25088;43.238;23.110;2023-04-01T20:07:37;95417.38;;;9.90;63.81
39363;BME280;25088;43.238;23.110;2023-04-01T20:10:14;95432.66;;;9.91;63.70
39363;BME280;25088;43.238;23.110;2023-04-01T20:15:34;95432.69;;;9.80;63.25
39363;BME280;25088;43.238;23.110;2023-04-01T20:18:02;95436.19;;;9.86;65.50
39363;BME280;25088;43.238;23.110;2023-04-01T20:20:30;95426.19;;;9.66;67.36
39363;BME280;25088;43.238;23.110;2023-04-01T20:23:08;95441.72;;;9.61;70.30
39363;BME280;25088;43.238;23.110;2023-04-01T20:25:52;95446.91;;;9.52;68.73
39363;BME280;25088;43.238;23.110;2023-04-01T20:31:44;95451.81;;;9.55;68.43
39363;BME280;25088;43.238;23.110;2023-04-01T20:39:45;95457.28;;;9.45;67.41
39363;BME280;25088;43.238;23.110;2023-04-01T20:45:14;95449.88;;;9.66;65.49
39363;BME280;25088;43.238;23.110;2023-04-01T20:53:16;95458.28;;;9.90;65.39
39363;BME280;25088;43.238;23.110;2023-04-01T20:58:23;95465.88;;;9.98;63.32
39363;BME280;25088;43.238;23.110;2023-04-01T21:06:27;95472.47;;;9.81;66.38
39363;BME280;25088;43.238;23.110;2023-04-01T21:17:26;95476.31;;;9.75;62.07
39363;BME280;25088;43.238;23.110;2023-04-01T21:25:09;95472.50;;;9.71;69.66
39363;BME280;25088;43.238;23.110;2023-04-01T21:33:15;95493.78;;;9.33;71.38
39363;BME280;25088;43.238;23.110;2023-04-01T21:41:47;95478.00;;;9.30;65.68
39363;BME280;25088;43.238;23.110;2023-04-01T21:58:19;95473.06;;;9.48;63.18
39363;BME280;25088;43.238;23.110;2023-04-01T22:07:06;95446.53;;;9.84;60.41
39363;BME280;25088;43.238;23.110;2023-04-01T22:09:45;95441.09;;;9.84;60.69
39363;BME280;25088;43.238;23.110;2023-04-01T22:12:20;95467.47;;;10.09;58.94
39363;BME280;25088;43.238;23.110;2023-04-01T22:15:14;95462.00;;;10.09;59.19
39363;BME280;25088;43.238;23.110;2023-04-01T22:17:57;95462.84;;;10.09;58.40
39363;BME280;25088;43.238;23.110;2023-04-01T22:20:36;95464.50;;;10.05;59.14
39363;BME280;25088;43.238;23.110;2023-04-01T22:23:26;95462.00;;;10.09;58.84
39363;BME280;25088;43.238;23.110;2023-04-01T22:26:06;95468.31;;;10.04;58.95
39363;BME280;25088;43.238;23.110;2023-04-01T22:31:11;95457.91;;;10.17;57.69
39363;BME280;25088;43.238;23.110;2023-04-01T22:33:42;95474.50;;;10.30;57.67
39363;BME280;25088;43.238;23.110;2023-04-01T22:39:24;95481.66;;;10.11;59.25
39363;BME280;25088;43.238;23.110;2023-04-01T22:44:58;95489.03;;;10.05;58.48
39363;BME280;25088;43.238;23.110;2023-04-01T22:47:49;95486.84;;;10.07;59.32
39363;BME280;25088;43.238;23.110;2023-04-01T22:53:18;95478.72;;;9.82;61.28
39363;BME280;25088;43.238;23.110;2023-04-01T22:55:51;95476.34;;;9.60;61.61
39363;BME280;25088;43.238;23.110;2023-04-01T22:58:21;95473.88;;;9.58;61.27
39363;BME280;25088;43.238;23.110;2023-04-01T23:00:55;95481.78;;;9.60;61.40
39363;BME280;25088;43.238;23.110;2023-04-01T23:03:31;95483.44;;;9.56;61.26
39363;BME280;25088;43.238;23.110;2023-04-01T23:06:04;95480.72;;;9.46;62.90
39363;BME280;25088;43.238;23.110;2023-04-01T23:12:07;95492.16;;;9.27;64.74
39363;BME280;25088;43.238;23.110;2023-04-01T23:14:43;95501.41;;;9.16;65.64